Latest Weather Observations for Mallacoota

IDV60801

Issued at 6:32 pm EST Tuesday 22 August 2017 (issued every 30 minutes, with the page automatically refreshed every 10 minutes)

About weather observations | Map of weather stations | Latest weather observations for VIC | Other Formats
Station Details ID: 084084 Name: MALLACOOTA Lat: -37.60 Lon: 149.73 Height: 22.0 m
Data from the previous 72 hours. | See also: Recent months at Mallacoota
Date/Time
EST
Temp
°C
App
Temp
°C
Dew
Point
°C
Rel
Hum
%
Delta-T
°C
Wind Press
QNH
hPa
Press
MSL
hPa
Rain since
9am
mm
Dir  Spd
km/h
Gust
km/h
Spd
kts
Gust
kts
22/06:30pm 8.2 6.0 5.1 81 1.4 NNW 6 7 3 4 1019.4 1019.4 0.0
22/06:00pm 9.0 6.7 4.6 74 1.9 NNW 6 7 3 4 1019.3 1019.3 0.0
22/05:30pm 10.0 8.1 4.8 70 2.3 N 4 9 2 5 1019.0 1019.0 0.0
22/05:00pm 13.0 11.3 5.7 61 3.4 E 4 7 2 4 1018.9 1018.9 0.0
22/04:30pm 13.8 11.4 5.4 57 3.9 SE 7 11 4 6 1018.5 1018.5 0.0
22/04:00pm 14.0 11.1 4.9 54 4.2 ESE 9 11 5 6 1018.2 1018.2 0.0
22/03:30pm 14.4 11.7 5.5 55 4.2 SSE 9 13 5 7 1017.9 1017.9 0.0
22/03:00pm 14.3 11.6 5.4 55 4.2 S 9 15 5 8 1017.9 1017.9 0.0
22/02:30pm 15.0 12.3 5.8 54 4.4 SE 9 13 5 7 1017.9 1017.9 0.0
22/02:00pm 14.7 12.1 6.3 57 4.0 SSE 9 17 5 9 1018.0 1018.0 0.0
22/01:30pm 14.6 11.8 5.1 53 4.5 SE 9 15 5 8 1018.2 1018.2 0.0
22/01:00pm 14.2 10.9 4.8 53 4.4 SE 11 15 6 8 1018.1 1018.1 0.0
22/12:30pm 14.6 11.4 5.1 53 4.5 SE 11 13 6 7 1018.4 1018.4 0.0
22/12:00pm 14.4 11.3 5.5 55 4.2 ESE 11 15 6 8 1018.7 1018.7 0.0
22/11:30am 15.4 11.5 3.2 44 5.5 SW 13 19 7 10 1019.1 1019.1 0.0
22/11:00am 14.9 10.9 3.1 45 5.3 SW 13 17 7 9 1019.3 1019.3 0.0
22/10:30am 14.2 11.1 3.4 48 4.9 WSW 9 17 5 9 1019.4 1019.4 0.0
22/10:00am 13.8 10.6 3.0 48 4.8 WNW 9 13 5 7 1019.2 1019.2 0.0
22/09:30am 13.0 10.7 5.7 61 3.4 WNW 7 9 4 5 1019.2 1019.2 0.0
22/09:00am 11.6 9.1 5.0 64 3.0 NW 7 11 4 6 1019.0 1019.0 0.0
22/08:30am 9.6 6.5 3.6 66 2.6 WNW 9 13 5 7 1018.9 1018.9 0.0
22/08:00am 7.7 4.2 3.6 75 1.7 WNW 11 13 6 7 1018.9 1018.9 0.0
22/07:30am 5.9 2.3 3.1 82 1.2 NW 11 17 6 9 1018.6 1018.6 0.0
22/07:00am 4.8 0.7 2.5 85 0.9 NW 13 15 7 8 1018.4 1018.4 0.0
22/06:30am 4.5 0.8 2.2 85 0.9 WNW 11 15 6 8 1018.1 1018.1 0.0
22/06:00am 5.0 1.3 2.5 84 1.0 WNW 11 15 6 8 1017.7 1017.7 0.0
22/05:30am 5.0 0.9 2.5 84 1.0 WNW 13 17 7 9 1017.4 1017.4 0.0
22/05:00am 5.3 1.3 2.8 84 1.0 WNW 13 13 7 7 1017.1 1017.1 0.0
22/04:30am 5.9 2.3 3.1 82 1.2 NW 11 13 6 7 1017.1 1017.1 0.0
22/04:00am 6.9 3.4 3.3 78 1.5 WNW 11 13 6 7 1016.8 1016.8 0.0
22/03:30am 6.9 3.4 3.5 79 1.4 WNW 11 15 6 8 1016.6 1016.6 0.0
22/03:00am 6.7 3.6 3.5 80 1.4 WNW 9 13 5 7 1016.6 1016.6 0.0
22/02:30am 6.9 3.8 3.7 80 1.4 WNW 9 13 5 7 1016.5 1016.5 0.0
22/02:00am 6.8 3.7 3.6 80 1.4 WNW 9 11 5 6 1016.7 1016.7 0.0
22/01:30am 7.0 3.9 3.6 79 1.4 NW 9 11 5 6 1017.0 1017.0 0.0
22/01:00am 8.0 4.9 3.5 73 1.9 WNW 9 13 5 7 1017.1 1017.1 0.0
22/12:30am 7.7 5.0 3.9 77 1.6 WNW 7 11 4 6 1017.2 1017.2 0.0
22/12:00am 7.4 4.8 4.4 81 1.3 NW 7 11 4 6 1017.4 1017.4 0.0
 
Date/Time
EST
Temp
°C
App
Temp
°C
Dew
Point
°C
Rel
Hum
%
Delta-T
°C
Wind Press
QNH
hPa
Press
MSL
hPa
Rain since
9am
mm
Dir  Spd
km/h
Gust
km/h
Spd
kts
Gust
kts
21/11:30pm 7.5 5.0 4.5 81 1.3 NW 7 11 4 6 1017.6 1017.6 0.0
21/11:00pm 7.4 4.5 4.4 81 1.3 WNW 9 11 5 6 1017.6 1017.6 0.0
21/10:30pm 7.5 4.5 4.3 80 1.4 WNW 9 46 5 25 1017.6 1017.6 0.0
21/10:00pm 7.5 4.5 4.3 80 1.4 WNW 9 11 5 6 1017.4 1017.4 0.0
21/09:30pm 8.1 5.2 4.5 78 1.6 WNW 9 13 5 7 1017.4 1017.4 0.0
21/09:00pm 8.0 5.1 4.6 79 1.5 NW 9 13 5 7 1017.1 1017.1 0.0
21/08:30pm 8.3 5.4 4.9 79 1.5 WNW 9 9 5 5 1016.9 1016.9 0.0
21/08:00pm 8.6 6.2 5.2 79 1.5 NW 7 9 4 5 1016.6 1016.6 0.0
21/07:30pm 8.7 6.3 5.4 80 1.5 WNW 7 11 4 6 1016.6 1016.6 0.0
21/07:00pm 8.9 6.6 5.5 79 1.5 WNW 7 9 4 5 1016.4 1016.4 0.0
21/06:30pm 9.2 7.3 5.0 75 1.9 WNW 4 7 2 4 1016.2 1016.2 0.0
21/06:00pm 9.3 8.1 4.7 73 2.0 CALM 0 0 0 0 1016.0 1016.0 0.0
21/05:30pm 9.7 8.5 4.7 71 2.2 CALM 0 0 0 0 1015.7 1015.7 0.0
21/05:00pm 10.7 8.4 4.6 66 2.7 WNW 6 9 3 5 1015.6 1015.6 0.0
21/04:30pm 11.0 8.7 4.7 65 2.8 NW 6 7 3 4 1015.6 1015.6 0.0
21/04:00pm 11.6 10.1 4.8 63 3.1 NW 2 7 1 4 1015.4 1015.4 0.0
21/03:30pm 12.4 9.4 2.3 50 4.4 WNW 7 11 4 6 1015.3 1015.3 0.0
21/03:00pm 13.3 9.7 0.3 41 5.4 NNW 9 17 5 9 1015.1 1015.1 0.0
21/02:30pm 15.5 12.1 1.6 39 6.1 NW 9 17 5 9 1015.1 1015.1 0.0
21/02:00pm 13.9 9.9 0.2 39 5.7 WSW 11 17 6 9 1015.4 1015.4 0.0
21/01:30pm 13.8 10.3 1.1 42 5.4 W 9 13 5 7 1015.7 1015.7 0.0
21/01:00pm 14.2 10.2 0.5 39 5.8 W 11 19 6 10 1015.9 1015.9 0.0
21/12:30pm 14.1 10.8 2.4 45 5.2 WNW 9 13 5 7 1016.0 1016.0 0.0
21/12:00pm 14.1 11.0 3.6 49 4.7 NW 9 17 5 9 1016.3 1016.3 0.0
21/11:30am 12.8 9.5 2.6 50 4.5 W 9 15 5 8 1016.8 1016.8 0.0
21/11:00am 13.9 11.4 5.0 55 4.1 NW 7 13 4 7 1016.9 1016.9 0.0
21/10:30am 12.1 10.2 7.4 73 2.3 NW 7 11 4 6 1017.0 1017.0 0.0
21/10:00am 10.3 8.1 6.1 75 1.9 NW 7 13 4 7 1016.9 1016.9 0.0
21/09:30am 9.7 7.1 5.9 77 1.7 NW 9 15 5 8 1017.1 1017.1 0.0
21/09:00am 8.5 5.7 5.3 80 1.4 WNW 9 13 5 7 1017.2 1017.2 0.0
21/08:30am 6.8 3.8 4.1 83 1.2 NW 9 13 5 7 1017.5 1017.5 0.0
21/08:00am 5.5 1.6 3.2 85 1.0 NW 13 17 7 9 1017.6 1017.6 0.0
21/07:30am 4.9 1.2 2.6 85 0.9 NW 11 15 6 8 1017.7 1017.7 0.0
21/07:00am 4.6 0.9 2.1 84 1.0 NW 11 13 6 7 1017.5 1017.5 0.0
21/06:30am 4.9 0.8 2.3 83 1.0 NW 13 17 7 9 1017.5 1017.5 0.0
21/06:00am 4.7 0.6 2.1 83 1.0 NW 13 15 7 8 1017.4 1017.4 0.0
21/05:30am 4.8 0.3 2.0 82 1.1 NW 15 17 8 9 1017.3 1017.3 0.0
21/05:00am 5.2 1.1 2.2 81 1.2 NW 13 17 7 9 1017.3 1017.3 0.0
21/04:30am 5.3 1.2 2.3 81 1.2 NW 13 15 7 8 1017.5 1017.5 0.0
21/04:00am 4.9 0.8 2.3 83 1.0 NW 13 15 7 8 1017.8 1017.8 0.0
21/03:30am 5.1 1.0 2.3 82 1.1 NW 13 17 7 9 1018.2 1018.2 0.0
21/03:00am 5.3 0.8 2.1 80 1.3 NW 15 17 8 9 1018.5 1018.5 0.0
21/02:30am 5.4 1.3 2.4 81 1.2 NW 13 17 7 9 1018.7 1018.7 0.0
21/02:00am 5.4 1.3 2.4 81 1.2 NW 13 17 7 9 1018.7 1018.7 0.0
21/01:30am 5.0 0.9 2.4 83 1.1 NW 13 17 7 9 1019.1 1019.1 0.0
21/01:00am 5.2 1.1 2.2 81 1.2 NW 13 17 7 9 1019.4 1019.4 0.0
21/12:30am 5.2 1.2 2.7 84 1.0 NW 13 17 7 9 1019.6 1019.6 0.0
21/12:00am 5.0 1.4 2.7 85 0.9 WNW 11 15 6 8 1020.2 1020.2 0.0
 
Date/Time
EST
Temp
°C
App
Temp
°C
Dew
Point
°C
Rel
Hum
%
Delta-T
°C
Wind Press
QNH
hPa
Press
MSL
hPa
Rain since
9am
mm
Dir  Spd
km/h
Gust
km/h
Spd
kts
Gust
kts
20/11:30pm 5.1 1.4 2.6 84 1.0 WNW 11 13 6 7 1020.5 1020.5 0.0
20/11:00pm 5.2 1.6 2.7 84 1.0 WNW 11 15 6 8 1020.9 1020.9 0.0
20/10:30pm 5.2 1.2 2.7 84 1.0 WNW 13 15 7 8 1021.0 1021.0 0.0
20/10:00pm 5.4 1.8 2.9 84 1.0 WNW 11 15 6 8 1020.9 1020.9 0.0
20/09:30pm 5.4 1.8 2.9 84 1.0 WNW 11 15 6 8 1021.1 1021.1 0.0
20/09:00pm 5.3 1.7 3.2 86 0.9 WNW 11 15 6 8 1021.4 1021.4 0.0
20/08:30pm 5.3 1.7 3.2 86 0.9 WNW 11 15 6 8 1021.3 1021.3 0.0
20/08:00pm 5.2 1.6 3.2 87 0.8 WNW 11 13 6 7 1021.1 1021.1 0.0
20/07:30pm 5.1 1.5 3.0 86 0.9 WNW 11 13 6 7 1021.1 1021.1 0.0
20/07:00pm 5.8 2.7 3.5 85 1.0 WNW 9 13 5 7 1021.0 1021.0 0.0
20/06:30pm 5.9 3.1 3.1 82 1.2 W 7 9 4 5 1021.1 1021.1 0.0
20/06:00pm 6.9 4.1 3.0 76 1.6 WSW 7 11 4 6 1021.1 1021.1 0.0
20/05:30pm 8.1 5.5 3.2 71 2.1 SW 6 11 3 6 1021.3 1021.3 0.0
20/05:00pm 10.0 7.2 3.1 62 3.0 SW 7 11 4 6 1021.6 1021.6 0.0
20/04:30pm 10.6 7.8 3.2 60 3.2 W 7 13 4 7 1021.8 1021.8 0.0
20/04:00pm 11.6 8.9 3.9 59 3.4 WSW 7 11 4 6 1021.8 1021.8 0.0
20/03:30pm 11.5 8.8 3.8 59 3.4 W 7 13 4 7 1021.9 1021.9 0.0
20/03:00pm 11.3 6.8 2.3 54 3.8 SW 15 26 8 14 1022.1 1022.1 0.0
20/02:30pm 11.4 7.4 2.7 55 3.8 SW 13 26 7 14 1022.1 1022.1 0.0
20/02:00pm 13.0 9.2 3.7 53 4.2 W 13 24 7 13 1022.3 1022.3 0.0
20/01:30pm 12.3 8.0 3.5 55 3.9 WSW 15 22 8 12 1022.7 1022.7 0.0
20/01:00pm 11.5 7.7 3.8 59 3.4 WSW 13 26 7 14 1023.4 1023.5 0.0
20/12:30pm 11.2 6.2 3.5 59 3.4 WSW 19 33 10 18 1023.8 1023.9 0.0
20/12:00pm 11.8 7.3 4.1 59 3.4 WSW 17 32 9 17 1024.0 1024.1 0.0
20/11:30am 11.7 6.8 4.0 59 3.4 WSW 19 33 10 18 1024.4 1024.5 0.0
20/11:00am 11.3 6.7 3.8 60 3.3 WSW 17 28 9 15 1024.5 1024.6 0.0
20/10:30am 10.4 5.4 3.4 62 3.1 WSW 19 30 10 16 1024.8 1024.9 0.0
20/10:00am 10.3 5.7 3.6 63 2.9 WSW 17 32 9 17 1024.8 1024.9 0.0
20/09:30am 9.7 5.0 3.4 65 2.7 W 17 28 9 15 1024.8 1024.9 0.0
20/09:00am 8.7 3.9 2.5 65 2.6 W 17 30 9 16 1025.1 1025.2 17.4
20/08:30am 8.4 3.5 2.2 65 2.6 W 17 28 9 15 1025.1 1025.2 17.4
20/08:00am 7.3 2.8 2.2 70 2.1 W 15 26 8 14 1025.0 1025.1 17.4
20/07:30am 7.7 2.9 2.6 70 2.1 W 17 33 9 18 1025.0 1025.1 17.4
20/07:00am 6.8 2.0 2.7 75 1.7 W 17 28 9 15 1024.5 1024.6 17.4
20/06:30am 6.5 1.8 2.9 78 1.5 W 17 32 9 17 1024.3 1024.4 17.4
20/06:00am 6.1 1.7 2.9 80 1.3 W 15 24 8 13 1023.9 1024.0 17.4
20/05:30am 6.4 1.7 3.0 79 1.4 W 17 26 9 14 1023.8 1023.9 17.4
20/05:00am 6.1 1.8 3.1 81 1.2 W 15 26 8 14 1023.7 1023.8 17.4
20/04:30am 6.4 1.7 3.2 80 1.3 W 17 32 9 17 1023.6 1023.7 17.4
20/04:00am 6.2 1.5 3.4 82 1.2 W 17 28 9 15 1023.5 1023.6 17.4
20/03:30am 6.1 1.0 3.3 82 1.2 W 19 30 10 16 1023.5 1023.6 17.4
20/03:00am 6.0 1.7 3.3 83 1.1 W 15 28 8 15 1023.6 1023.7 17.4
20/02:30am 6.2 1.5 3.4 82 1.2 W 17 28 9 15 1023.5 1023.6 17.4
20/02:00am 6.4 1.7 3.2 80 1.3 W 17 26 9 14 1023.6 1023.7 17.4
20/01:30am 6.5 2.2 3.3 80 1.3 W 15 22 8 12 1023.5 1023.6 17.4
20/01:00am 6.5 2.1 2.8 77 1.5 W 15 24 8 13 1023.7 1023.8 17.4
20/12:30am 5.8 1.7 2.3 78 1.4 WNW 13 22 7 12 1023.5 1023.6 17.4
20/12:00am 6.9 3.2 2.6 74 1.8 W 11 19 6 10 1023.5 1023.6 17.4
 
Date/Time
EST
Temp
°C
App
Temp
°C
Dew
Point
°C
Rel
Hum
%
Delta-T
°C
Wind Press
QNH
hPa
Press
MSL
hPa
Rain since
9am
mm
Dir  Spd
km/h
Gust
km/h
Spd
kts
Gust
kts
19/11:30pm 6.7 3.0 2.4 74 1.8 W 11 19 6 10 1023.6 1023.7 17.4
19/11:00pm 6.4 2.7 2.1 74 1.7 WNW 11 17 6 9 1023.5 1023.6 17.4
19/10:30pm 6.4 3.0 1.7 72 1.9 WNW 9 13 5 7 1023.5 1023.6 17.4
19/10:00pm 7.0 3.2 1.9 70 2.1 WNW 11 24 6 13 1023.5 1023.6 17.4
19/09:30pm 7.4 3.2 1.7 67 2.3 WSW 13 20 7 11 1023.6 1023.7 17.4
19/09:00pm 7.5 3.3 1.8 67 2.3 WSW 13 20 7 11 1023.7 1023.8 17.4
19/08:30pm 8.2 4.1 2.0 65 2.6 WSW 13 26 7 14 1023.7 1023.8 17.4
19/08:00pm 8.2 4.0 1.8 64 2.6 WSW 13 20 7 11 1023.8 1023.9 17.4
19/07:30pm 8.0 3.8 1.6 64 2.6 WSW 13 26 7 14 1023.7 1023.8 17.4
19/07:00pm 7.9 3.7 1.7 65 2.5 WSW 13 20 7 11 1023.7 1023.8 17.4

Other Formats:

Comma delimited format used in spreadsheet applications
http://www.bom.gov.au/fwo/IDV60801/IDV60801.94935.axf

JavaScript Object Notation format (JSON) in row-major order
http://www.bom.gov.au/fwo/IDV60801/IDV60801.94935.json